Time;durP1;ratioP1;P1;durP2;ratioP2;P2;SDS_P1;SDS_P2;PMS_P1;PMS_P2;Temp;Humidity;BMP_temperature;BMP_pressure;BME280_temperature;BME280_humidity;BME280_pressure;Samples;Min_cycle;Max_cycle;Signal;HPM_P1;HPM_P2
2022/05/22 00:07:12;;;;;;;;;;;;;;;;;;;;;
2022/05/22 00:10:01;;;;;;;6.43;4.65;;;;;;;;;;4828398;29;20048;-87
2022/05/22 00:12:29;;;;;;;7.00;4.45;;;;;;;;;;4883663;29;20032;-84
2022/05/22 00:14:56;;;;;;;6.85;4.63;;;;;;;;;;4919185;29;20051;-82
2022/05/22 00:17:22;;;;;;;6.57;3.85;;;;;;;;;;4919232;29;20031;-83
2022/05/22 00:19:51;;;;;;;5.03;4.20;;;;;;;;;;4935187;28;20023;-84
2022/05/22 00:22:29;;;;;;;6.45;4.60;;;;;;;;;;5016089;28;20488;-85
2022/05/22 00:24:56;;;;;;;6.63;4.13;;;;;;;;;;5034019;28;20038;-80
2022/05/22 00:27:30;;;;;;;5.75;4.35;;;;;;;;;;5034223;28;20036;-85
2022/05/22 00:29:58;;;;;;;5.68;3.85;;;;;;;;;;5034021;28;20397;-83
2022/05/22 00:32:24;;;;;;;6.82;4.00;;;;;;;;;;5016725;28;20068;-82
2022/05/22 00:34:50;;;;;;;5.13;4.05;;;;;;;;;;5033876;28;20067;-86
2022/05/22 00:37:34;;;;;;;8.52;5.95;;;;;;;;;;5034171;28;20100;-84
2022/05/22 00:40:00;;;;;;;5.33;4.20;;;;;;;;;;5034066;28;20522;-83
2022/05/22 00:42:29;;;;;;;7.13;5.53;;;;;;;;;;5033746;28;20108;-84
2022/05/22 00:45:05;;;;;;;;;;;;;;;;;;;;;
2022/05/22 00:47:31;;;;;;;6.72;4.30;;;;;;;;;;5033689;28;20018;-80
2022/05/22 00:50:00;;;;;;;4.97;4.45;;;;;;;;;;5033649;28;20021;-81
2022/05/22 00:52:29;;;;;;;5.78;4.43;;;;;;;;;;5033531;28;20021;-82
2022/05/22 00:55:12;;;;;;;5.47;3.88;;;;;;;;;;5015945;28;20447;-83
2022/05/22 00:57:47;;;;;;;5.18;4.45;;;;;;;;;;5033584;28;20528;-83
2022/05/22 01:00:15;;;;;;;6.00;4.55;;;;;;;;;;5015711;28;20029;-84
2022/05/22 01:05:31;;;;;;;4.63;3.90;;;;;;;;;;5033511;28;20538;-82
2022/05/22 01:07:57;;;;;;;5.88;4.53;;;;;;;;;;5033248;28;20391;-81
2022/05/22 01:10:25;;;;;;;5.70;4.90;;;;;;;;;;5033427;28;20017;-83
2022/05/22 01:12:53;;;;;;;4.38;3.78;;;;;;;;;;5015498;28;20444;-82
2022/05/22 01:15:20;;;;;;;5.03;4.53;;;;;;;;;;5034023;28;20057;-83
2022/05/22 01:17:47;;;;;;;5.15;4.63;;;;;;;;;;5033028;28;20040;-83
2022/05/22 01:20:14;;;;;;;5.57;4.93;;;;;;;;;;5033132;28;20480;-83
2022/05/22 01:22:40;;;;;;;5.40;4.90;;;;;;;;;;5033204;28;20365;-81
2022/05/22 01:25:07;;;;;;;4.55;4.13;;;;;;;;;;5032969;28;20033;-81
2022/05/22 01:27:33;;;;;;;5.90;5.05;;;;;;;;;;5033122;28;20017;-81
2022/05/22 01:30:19;;;;;;;6.55;4.47;;;;;;;;;;5015225;28;20045;-81
2022/05/22 01:32:46;;;;;;;5.78;4.95;;;;;;;;;;5014541;28;20032;-82
2022/05/22 01:35:15;;;;;;;4.47;4.07;;;;;;;;;;5032823;28;20116;-80
2022/05/22 01:37:52;;;;;;;6.45;4.40;;;;;;;;;;5032655;28;20022;-83
2022/05/22 01:40:19;;;;;;;7.05;4.65;;;;;;;;;;5033050;28;20404;-82
2022/05/22 01:42:45;;;;;;;5.57;4.47;;;;;;;;;;5032806;28;20029;-85
2022/05/22 01:45:14;;;;;;;4.95;4.40;;;;;;;;;;5029784;28;20447;-82
2022/05/22 01:47:46;;;;;;;5.32;4.60;;;;;;;;;;4995280;28;20033;-84
2022/05/22 01:50:13;;;;;;;6.72;4.90;;;;;;;;;;5013069;28;20026;-83
2022/05/22 01:52:42;;;;;;;4.85;4.18;;;;;;;;;;5012930;28;20018;-86
2022/05/22 02:20:02;;;;;;;;;;;;;;;;;;;;;
2022/05/22 02:23:01;;;;;;;;;;;;;;;;;;;;;
2022/05/22 02:26:00;;;;;;;;;;;;;;;;;;;;;
2022/05/22 02:31:41;;;;;;;6.40;5.60;;;;;;;;;;4831518;29;20129;-84
2022/05/22 02:53:05;;;;;;;;;;;;;;;;;;;;;
2022/05/22 02:55:44;;;;;;;;;;;;;;;;;;;;;
2022/05/22 02:58:11;;;;;;;5.77;4.80;;;;;;;;;;4872949;29;20036;-82
2022/05/22 03:00:40;;;;;;;6.00;5.40;;;;;;;;;;4940491;28;20480;-83
2022/05/22 03:03:08;;;;;;;5.15;4.60;;;;;;;;;;4996200;28;20441;-86
2022/05/22 03:08:20;;;;;;;5.25;4.75;;;;;;;;;;4996372;28;20034;-85
2022/05/22 03:10:46;;;;;;;5.28;4.43;;;;;;;;;;4996351;28;20057;-84
2022/05/22 03:13:13;;;;;;;6.18;4.78;;;;;;;;;;4996290;28;20054;-83
2022/05/22 03:15:39;;;;;;;7.10;4.85;;;;;;;;;;4978731;28;20444;-83
2022/05/22 03:18:06;;;;;;;8.15;5.20;;;;;;;;;;4996055;28;20027;-82
2022/05/22 03:20:33;;;;;;;5.18;4.45;;;;;;;;;;4996063;28;20030;-82
2022/05/22 03:22:59;;;;;;;7.22;4.70;;;;;;;;;;4995803;28;20026;-81
2022/05/22 03:25:25;;;;;;;6.22;4.78;;;;;;;;;;5027997;28;20029;-84
2022/05/22 03:27:54;;;;;;;5.03;4.47;;;;;;;;;;5017814;28;20125;-77
2022/05/22 03:30:20;;;;;;;5.70;5.03;;;;;;;;;;5015445;28;20483;-79
2022/05/22 03:32:46;;;;;;;7.95;5.00;;;;;;;;;;5015090;28;20061;-84
2022/05/22 03:35:12;;;;;;;6.95;4.85;;;;;;;;;;5015399;28;20034;-80
2022/05/22 03:37:39;;;;;;;8.13;5.15;;;;;;;;;;5015410;28;20427;-83
2022/05/22 03:40:05;;;;;;;8.70;5.10;;;;;;;;;;5015060;28;20025;-81
2022/05/22 03:42:31;;;;;;;7.45;5.05;;;;;;;;;;5015165;28;20046;-83
2022/05/22 03:44:57;;;;;;;5.45;4.65;;;;;;;;;;5015095;28;20097;-82
2022/05/22 03:47:26;;;;;;;5.97;4.40;;;;;;;;;;4997427;28;20050;-83
2022/05/22 03:49:52;;;;;;;8.57;4.97;;;;;;;;;;5014838;28;20026;-79
2022/05/22 03:52:18;;;;;;;5.90;4.78;;;;;;;;;;5015190;28;20126;-79
2022/05/22 03:54:44;;;;;;;7.03;4.50;;;;;;;;;;5015095;28;20022;-84
2022/05/22 03:57:10;;;;;;;5.93;4.65;;;;;;;;;;4996705;28;20034;-80
2022/05/22 03:59:40;;;;;;;6.43;4.72;;;;;;;;;;5015343;28;20451;-80
2022/05/22 04:02:09;;;;;;;13.05;11.85;;;;;;;;;;5022344;28;20034;-82
2022/05/22 04:04:40;;;;;;;7.53;6.60;;;;;;;;;;4996853;28;20034;-82
2022/05/22 04:07:11;;;;;;;6.15;5.50;;;;;;;;;;5014201;28;20105;-83
2022/05/22 04:09:37;;;;;;;6.30;5.70;;;;;;;;;;5021364;28;20022;-80
2022/05/22 04:12:07;;;;;;;8.43;7.50;;;;;;;;;;5034216;28;20028;-81
2022/05/22 04:14:33;;;;;;;6.97;5.18;;;;;;;;;;5032557;28;20389;-80
2022/05/22 04:16:59;;;;;;;6.97;6.18;;;;;;;;;;5014427;28;20037;-82
2022/05/22 04:19:28;;;;;;;6.07;5.32;;;;;;;;;;5014628;28;20034;-83
2022/05/22 04:21:56;;;;;;;8.77;5.90;;;;;;;;;;5014251;28;20026;-83
2022/05/22 04:27:07;;;;;;;8.75;5.95;;;;;;;;;;5015210;28;20036;-82
2022/05/22 04:29:34;;;;;;;6.85;5.05;;;;;;;;;;5014625;28;20018;-82
2022/05/22 04:32:03;;;;;;;5.05;4.47;;;;;;;;;;5014362;28;20026;-82
2022/05/22 04:34:29;;;;;;;5.97;4.57;;;;;;;;;;5014143;28;20026;-83
2022/05/22 04:36:55;;;;;;;6.82;6.22;;;;;;;;;;5012871;28;20030;-82
2022/05/22 04:39:21;;;;;;;6.65;5.15;;;;;;;;;;5014072;28;20492;-81
2022/05/22 04:41:47;;;;;;;6.88;5.47;;;;;;;;;;5013787;28;20037;-82
2022/05/22 04:44:14;;;;;;;5.90;5.32;;;;;;;;;;5014241;28;20022;-81
2022/05/22 04:46:40;;;;;;;6.35;4.53;;;;;;;;;;5006940;28;20136;-82
2022/05/22 04:49:06;;;;;;;6.40;5.75;;;;;;;;;;5034182;28;20392;-83
2022/05/22 04:51:39;;;;;;;8.63;6.35;;;;;;;;;;5033736;28;20021;-85
2022/05/22 04:54:25;;;;;;;;;;;;;;;;;;;;;
2022/05/22 04:56:54;;;;;;;9.07;7.28;;;;;;;;;;5034594;28;20052;-82
2022/05/22 04:59:20;;;;;;;6.00;4.93;;;;;;;;;;5033966;28;20025;-81
2022/05/22 05:02:03;;;;;;;5.35;4.85;;;;;;;;;;5033776;28;20104;-85
2022/05/22 05:04:33;;;;;;;7.75;4.78;;;;;;;;;;5033876;28;20532;-83
2022/05/22 05:06:59;;;;;;;8.10;4.78;;;;;;;;;;5014961;28;20092;-82
2022/05/22 05:09:31;;;;;;;5.03;4.63;;;;;;;;;;5016080;28;20479;-85
2022/05/22 05:14:53;;;;;;;5.50;4.88;;;;;;;;;;5028459;28;20033;-85
2022/05/22 05:17:22;;;;;;;8.68;5.13;;;;;;;;;;5016044;28;20550;-82
2022/05/22 05:19:50;;;;;;;5.45;4.32;;;;;;;;;;5033917;28;20049;-83
2022/05/22 05:22:28;;;;;;;5.55;4.38;;;;;;;;;;5033630;28;20048;-80
2022/05/22 05:24:54;;;;;;;6.30;4.60;;;;;;;;;;5033101;28;20022;-84
2022/05/22 05:27:20;;;;;;;5.85;4.50;;;;;;;;;;5032879;28;20028;-79
2022/05/22 05:29:46;;;;;;;5.18;4.68;;;;;;;;;;5036677;28;20112;-83
2022/05/22 05:32:12;;;;;;;5.97;4.22;;;;;;;;;;5052958;28;20025;-82
2022/05/22 05:34:41;;;;;;;6.43;4.93;;;;;;;;;;5052571;28;20025;-82
2022/05/22 05:37:07;;;;;;;6.13;4.60;;;;;;;;;;5052833;28;20024;-80
2022/05/22 05:39:33;;;;;;;4.97;3.88;;;;;;;;;;5052762;28;20028;-80
2022/05/22 05:41:59;;;;;;;6.35;5.20;;;;;;;;;;5052552;28;20025;-80
2022/05/22 05:44:28;;;;;;;5.68;5.15;;;;;;;;;;5052750;28;20044;-87
2022/05/22 05:46:54;;;;;;;7.50;5.32;;;;;;;;;;5052799;28;20068;-79
2022/05/22 05:49:21;;;;;;;9.25;5.53;;;;;;;;;;5052318;28;20028;-79
2022/05/22 05:51:47;;;;;;;5.50;4.47;;;;;;;;;;5021979;28;20508;-78
2022/05/22 05:54:13;;;;;;;6.45;4.50;;;;;;;;;;5045177;28;20025;-79
2022/05/22 05:56:41;;;;;;;4.90;4.20;;;;;;;;;;5047743;28;20053;-81
2022/05/22 05:59:07;;;;;;;6.53;4.35;;;;;;;;;;5042629;28;20029;-81
2022/05/22 06:01:34;;;;;;;6.68;4.80;;;;;;;;;;5042176;28;20101;-80
2022/05/22 06:04:01;;;;;;;5.13;4.22;;;;;;;;;;5032505;28;20022;-80
2022/05/22 06:06:27;;;;;;;5.43;4.00;;;;;;;;;;5032384;28;20097;-78
2022/05/22 06:08:53;;;;;;;7.40;4.32;;;;;;;;;;5032279;28;20017;-76
2022/05/22 06:11:20;;;;;;;5.45;4.22;;;;;;;;;;5032513;28;20037;-79
2022/05/22 06:13:46;;;;;;;7.30;4.18;;;;;;;;;;5032096;28;20404;-77
2022/05/22 06:16:12;;;;;;;5.13;4.32;;;;;;;;;;5032447;28;20064;-80
2022/05/22 06:18:38;;;;;;;5.65;4.38;;;;;;;;;;5031996;28;20072;-76
2022/05/22 06:21:08;;;;;;;9.20;5.43;;;;;;;;;;5036023;28;20056;-77
2022/05/22 06:23:35;;;;;;;12.25;8.27;;;;;;;;;;5036013;28;20083;-78
2022/05/22 06:26:01;;;;;;;6.05;4.95;;;;;;;;;;5036399;28;20163;-81
2022/05/22 06:28:27;;;;;;;8.05;4.70;;;;;;;;;;5050127;28;20021;-78
2022/05/22 06:30:55;;;;;;;5.05;4.63;;;;;;;;;;5054151;28;20025;-80
2022/05/22 06:33:21;;;;;;;6.25;4.30;;;;;;;;;;5036296;28;20033;-78
2022/05/22 06:35:48;;;;;;;5.70;4.22;;;;;;;;;;5035557;28;20021;-77
2022/05/22 06:40:59;;;;;;;6.20;4.85;;;;;;;;;;5016631;28;20084;-81
2022/05/22 06:43:25;;;;;;;6.18;4.93;;;;;;;;;;5016019;28;20118;-84
2022/05/22 06:45:52;;;;;;;5.15;4.25;;;;;;;;;;5029302;28;20061;-77
2022/05/22 06:48:18;;;;;;;5.40;4.30;;;;;;;;;;5055795;28;20029;-77
2022/05/22 06:50:45;;;;;;;7.57;4.13;;;;;;;;;;5055901;28;20578;-80
2022/05/22 06:53:11;;;;;;;5.70;4.60;;;;;;;;;;5055889;28;20479;-77
2022/05/22 06:55:37;;;;;;;5.72;4.35;;;;;;;;;;5055626;28;20096;-80
2022/05/22 06:58:03;;;;;;;6.43;4.35;;;;;;;;;;5055662;28;20071;-78
2022/05/22 07:00:30;;;;;;;8.40;4.38;;;;;;;;;;5055508;28;20063;-79
2022/05/22 07:02:56;;;;;;;6.10;4.05;;;;;;;;;;5055501;28;20064;-80
2022/05/22 07:05:22;;;;;;;4.78;3.85;;;;;;;;;;5055555;28;20048;-78
2022/05/22 07:07:48;;;;;;;8.00;3.75;;;;;;;;;;5055420;28;20017;-78
2022/05/22 07:10:14;;;;;;;6.93;4.20;;;;;;;;;;5055568;28;20494;-80
2022/05/22 07:12:44;;;;;;;6.35;4.53;;;;;;;;;;5037427;28;20074;-82
2022/05/22 07:15:11;;;;;;;6.07;4.10;;;;;;;;;;5055488;28;20495;-80
2022/05/22 07:17:37;;;;;;;7.38;4.30;;;;;;;;;;5055208;28;20029;-80
2022/05/22 07:20:04;;;;;;;5.55;4.10;;;;;;;;;;5045156;28;20086;-78
2022/05/22 07:22:30;;;;;;;5.88;4.07;;;;;;;;;;5036100;28;20025;-82
2022/05/22 07:24:57;;;;;;;5.50;3.33;;;;;;;;;;5035698;28;20021;-83
2022/05/22 07:27:23;;;;;;;5.78;3.88;;;;;;;;;;5043037;28;20025;-79
2022/05/22 07:29:49;;;;;;;4.60;3.20;;;;;;;;;;5039087;28;20092;-77
2022/05/22 07:32:15;;;;;;;4.32;3.05;;;;;;;;;;5042813;28;20025;-79
2022/05/22 07:34:42;;;;;;;9.93;4.32;;;;;;;;;;5055014;28;20036;-81
2022/05/22 07:37:09;;;;;;;7.78;4.03;;;;;;;;;;5052981;28;20491;-79
2022/05/22 07:39:36;;;;;;;5.22;3.25;;;;;;;;;;5034670;28;20029;-79
2022/05/22 07:42:02;;;;;;;7.07;2.88;;;;;;;;;;5034782;28;20092;-80
2022/05/22 07:44:29;;;;;;;5.68;3.38;;;;;;;;;;5035342;28;20049;-78
2022/05/22 07:46:55;;;;;;;7.00;3.80;;;;;;;;;;5034005;28;20059;-80
2022/05/22 07:52:07;;;;;;;6.38;3.10;;;;;;;;;;5053905;28;20507;-77
2022/05/22 07:54:34;;;;;;;6.45;2.78;;;;;;;;;;5050886;28;20024;-80
2022/05/22 07:57:00;;;;;;;6.40;3.10;;;;;;;;;;5037553;28;20049;-76
2022/05/22 07:59:26;;;;;;;4.10;2.90;;;;;;;;;;5034378;28;20040;-80
2022/05/22 08:01:52;;;;;;;6.28;3.35;;;;;;;;;;5034219;28;20060;-79
2022/05/22 08:04:18;;;;;;;5.90;3.10;;;;;;;;;;5034191;28;20029;-77
2022/05/22 08:06:44;;;;;;;4.15;3.20;;;;;;;;;;5038221;28;20025;-76
2022/05/22 08:09:10;;;;;;;5.70;4.55;;;;;;;;;;5045710;28;20030;-82
2022/05/22 08:11:39;;;;;;;4.20;2.38;;;;;;;;;;5036180;28;20520;-82
2022/05/22 08:14:05;;;;;;;3.30;2.65;;;;;;;;;;5021017;28;20033;-78
2022/05/22 08:16:31;;;;;;;2.25;2.05;;;;;;;;;;5024175;28;20056;-79
2022/05/22 08:18:57;;;;;;;3.83;2.40;;;;;;;;;;5033569;28;20476;-77
2022/05/22 08:21:23;;;;;;;3.78;2.80;;;;;;;;;;5034647;28;20164;-80
2022/05/22 08:23:49;;;;;;;5.07;2.40;;;;;;;;;;5033815;28;20053;-81
2022/05/22 08:26:15;;;;;;;7.43;5.22;;;;;;;;;;5033747;28;20480;-78
2022/05/22 08:28:42;;;;;;;4.30;2.30;;;;;;;;;;5033617;28;20100;-81
2022/05/22 08:31:08;;;;;;;4.65;2.88;;;;;;;;;;5033668;28;20530;-80
2022/05/22 08:33:34;;;;;;;4.07;3.03;;;;;;;;;;5033752;28;20101;-80
2022/05/22 08:36:00;;;;;;;5.75;2.72;;;;;;;;;;5033553;28;20029;-82
2022/05/22 08:38:27;;;;;;;6.22;2.53;;;;;;;;;;5034157;28;20051;-77
2022/05/22 08:40:56;;;;;;;5.55;2.80;;;;;;;;;;5033363;28;21340;-81
2022/05/22 08:43:32;;;;;;;3.55;2.60;;;;;;;;;;5033715;28;20025;-79
2022/05/22 08:46:03;;;;;;;5.03;2.72;;;;;;;;;;5028402;28;20049;-78
2022/05/22 08:48:32;;;;;;;5.93;2.45;;;;;;;;;;5033397;28;20026;-80
2022/05/22 08:50:59;;;;;;;4.13;2.50;;;;;;;;;;5033492;28;20028;-78
2022/05/22 08:53:31;;;;;;;6.00;2.72;;;;;;;;;;5033164;28;20029;-80
2022/05/22 08:59:05;;;;;;;6.78;4.28;;;;;;;;;;5034097;28;20411;-79
2022/05/22 09:01:37;;;;;;;4.75;2.60;;;;;;;;;;5033750;28;20053;-79
2022/05/22 09:04:03;;;;;;;3.75;3.03;;;;;;;;;;5032971;28;20029;-78
2022/05/22 09:06:48;;;;;;;3.78;2.25;;;;;;;;;;5033369;28;20112;-82
2022/05/22 09:09:14;;;;;;;6.65;2.95;;;;;;;;;;5033173;28;20075;-76
2022/05/22 09:11:58;;;;;;;4.15;2.75;;;;;;;;;;5033069;28;20083;-79
2022/05/22 09:14:26;;;;;;;;;;;;;;;;;;5033313;28;20036;-78
2022/05/22 09:17:05;;;;;;;4.68;2.30;;;;;;;;;;5033240;28;19912;-80
2022/05/22 09:19:38;;;;;;;3.70;2.28;;;;;;;;;;5033079;28;20531;-79
2022/05/22 09:22:04;;;;;;;4.60;2.33;;;;;;;;;;5032718;28;20034;-81
2022/05/22 09:24:49;;;;;;;3.10;2.08;;;;;;;;;;5032799;28;20023;-80
2022/05/22 09:27:21;;;;;;;3.75;2.33;;;;;;;;;;5032993;28;20033;-82
2022/05/22 09:30:03;;;;;;;6.45;2.30;;;;;;;;;;5032577;28;20021;-78
2022/05/22 09:32:58;;;;;;;4.55;2.63;;;;;;;;;;5032650;28;20033;-80
2022/05/22 09:35:38;;;;;;;3.60;3.30;;;;;;;;;;5016033;28;20124;-77
2022/05/22 09:38:10;;;;;;;6.13;4.35;;;;;;;;;;5032479;28;20392;-79
2022/05/22 09:40:45;;;;;;;3.40;2.10;;;;;;;;;;5015117;28;20083;-81
2022/05/22 09:43:14;;;;;;;5.32;2.80;;;;;;;;;;5032575;28;20105;-78
2022/05/22 09:45:59;;;;;;;4.05;2.13;;;;;;;;;;5032329;28;20057;-77
2022/05/22 09:48:45;;;;;;;3.95;1.95;;;;;;;;;;5032285;28;20033;-75
2022/05/22 09:51:19;;;;;;;4.38;2.00;;;;;;;;;;5031178;28;20025;-78
2022/05/22 09:53:45;;;;;;;;;;;;;;;;;;5032583;28;20029;-79
2022/05/22 09:56:25;;;;;;;4.53;2.25;;;;;;;;;;5032294;28;19928;-79
2022/05/22 09:58:58;;;;;;;4.53;2.30;;;;;;;;;;5032528;28;20088;-81
2022/05/22 10:01:30;;;;;;;3.85;1.90;;;;;;;;;;5032330;28;20073;-78
2022/05/22 10:03:59;;;;;;;5.78;2.45;;;;;;;;;;5030876;28;20018;-79
2022/05/22 10:06:44;;;;;;;5.05;1.77;;;;;;;;;;5032352;28;20030;-77
2022/05/22 10:09:29;;;;;;;3.17;1.15;;;;;;;;;;5033086;28;20079;-79
2022/05/22 10:12:13;;;;;;;3.28;1.48;;;;;;;;;;5032400;28;20029;-79
2022/05/22 10:14:58;;;;;;;2.65;1.33;;;;;;;;;;5032158;28;20547;-80
2022/05/22 10:17:43;;;;;;;3.10;1.25;;;;;;;;;;5032178;28;20408;-77
2022/05/22 10:20:20;;;;;;;2.65;1.30;;;;;;;;;;5032095;28;20100;-79
2022/05/22 10:22:46;;;;;;;2.83;1.20;;;;;;;;;;5031682;28;20029;-80
2022/05/22 10:25:15;;;;;;;2.08;1.15;;;;;;;;;;5032320;28;20017;-77
2022/05/22 10:27:47;;;;;;;3.63;1.50;;;;;;;;;;5031988;28;20029;-78
2022/05/22 10:30:26;;;;;;;4.13;1.40;;;;;;;;;;5031887;28;20025;-76
2022/05/22 10:32:55;;;;;;;5.65;1.80;;;;;;;;;;5032063;28;20030;-78
2022/05/22 10:35:35;;;;;;;3.90;1.60;;;;;;;;;;5049288;28;20111;-79
2022/05/22 10:38:12;;;;;;;5.28;2.38;;;;;;;;;;5051695;28;20021;-78
2022/05/22 10:43:30;;;;;;;2.10;1.88;;;;;;;;;;5031801;28;20041;-78
2022/05/22 10:45:56;;;;;;;2.40;2.10;;;;;;;;;;5030903;28;20434;-76
2022/05/22 10:48:33;;;;;;;2.95;2.00;;;;;;;;;;5040470;28;20102;-77
2022/05/22 10:51:04;;;;;;;5.72;3.88;;;;;;;;;;5051211;28;20079;-77
2022/05/22 10:53:49;;;;;;;5.65;4.38;;;;;;;;;;5033400;28;20037;-81
2022/05/22 10:56:15;;;;;;;3.78;2.22;;;;;;;;;;5042112;28;20538;-76
2022/05/22 10:58:51;;;;;;;2.67;1.70;;;;;;;;;;5033586;28;20139;-77
2022/05/22 11:01:18;;;;;;;4.25;2.70;;;;;;;;;;5027860;28;20056;-77
2022/05/22 11:03:44;;;;;;;4.00;2.17;;;;;;;;;;5027193;28;20479;-78
2022/05/22 11:06:21;;;;;;;5.53;2.72;;;;;;;;;;5043464;28;20055;-76
2022/05/22 11:08:52;;;;;;;4.05;1.67;;;;;;;;;;5027670;28;20021;-80
2022/05/22 11:11:20;;;;;;;2.78;1.52;;;;;;;;;;5034797;28;20037;-78
2022/05/22 11:13:47;;;;;;;3.17;2.10;;;;;;;;;;5046060;28;20032;-81
2022/05/22 11:16:17;;;;;;;4.90;3.33;;;;;;;;;;5039985;28;20033;-78
2022/05/22 11:18:44;;;;;;;2.97;1.23;;;;;;;;;;5035383;28;20091;-77
2022/05/22 11:21:14;;;;;;;3.03;1.67;;;;;;;;;;5039033;28;20029;-78
2022/05/22 11:23:40;;;;;;;1.92;1.35;;;;;;;;;;5035090;28;20469;-77
2022/05/22 11:26:25;;;;;;;2.88;1.73;;;;;;;;;;5035037;28;20049;-77
2022/05/22 11:29:10;;;;;;;2.55;1.10;;;;;;;;;;5034811;28;20419;-77
2022/05/22 11:31:54;;;;;;;2.90;1.48;;;;;;;;;;5034797;28;20032;-79
2022/05/22 11:34:30;;;;;;;1.85;1.15;;;;;;;;;;5034754;28;20031;-77
2022/05/22 11:37:08;;;;;;;2.70;1.20;;;;;;;;;;5034812;28;20480;-80
2022/05/22 11:39:48;;;;;;;2.67;1.27;;;;;;;;;;5034780;28;20103;-77
2022/05/22 11:42:21;;;;;;;4.28;1.50;;;;;;;;;;5034680;28;20045;-77
2022/05/22 11:44:47;;;;;;;3.33;1.45;;;;;;;;;;5034587;28;20032;-79
2022/05/22 11:47:30;;;;;;;4.30;1.92;;;;;;;;;;5033200;28;20057;-79
2022/05/22 11:50:12;;;;;;;3.72;1.95;;;;;;;;;;5034734;28;20057;-79
2022/05/22 11:52:57;;;;;;;5.90;2.15;;;;;;;;;;5034661;28;20022;-79
2022/05/22 11:55:35;;;;;;;2.78;1.73;;;;;;;;;;5021837;28;20403;-78
2022/05/22 11:58:08;;;;;;;6.53;1.65;;;;;;;;;;5034582;28;20032;-79
2022/05/22 12:00:52;;;;;;;2.35;1.48;;;;;;;;;;5034278;28;20127;-77
2022/05/22 12:03:25;;;;;;;2.13;1.20;;;;;;;;;;5031524;28;20388;-79
2022/05/22 12:05:53;;;;;;;3.70;2.95;;;;;;;;;;5037569;28;20025;-78
2022/05/22 12:08:19;;;;;;;1.92;0.68;;;;;;;;;;5034427;28;20499;-81
2022/05/22 12:10:49;;;;;;;1.90;0.80;;;;;;;;;;5034261;28;20037;-77
2022/05/22 12:13:34;;;;;;;1.55;0.93;;;;;;;;;;5033207;28;20021;-76
2022/05/22 12:16:02;;;;;;;3.58;1.00;;;;;;;;;;5034301;28;20022;-82
2022/05/22 12:18:31;;;;;;;2.13;0.65;;;;;;;;;;5015945;28;20026;-78
2022/05/22 12:21:16;;;;;;;5.93;1.00;;;;;;;;;;5034003;28;20465;-80
2022/05/22 12:23:51;;;;;;;3.72;1.00;;;;;;;;;;5034164;28;20029;-79
2022/05/22 12:26:17;;;;;;;2.78;1.10;;;;;;;;;;5034041;28;20025;-79
2022/05/22 12:29:02;;;;;;;4.15;1.35;;;;;;;;;;5033998;28;20049;-80
2022/05/22 12:31:28;;;;;;;3.38;1.05;;;;;;;;;;5034529;28;20060;-78
2022/05/22 12:33:55;;;;;;;3.55;1.38;;;;;;;;;;5033807;28;20017;-76
2022/05/22 12:36:40;;;;;;;1.92;1.00;;;;;;;;;;5033960;28;20026;-77
2022/05/22 12:39:08;;;;;;;3.15;1.20;;;;;;;;;;5032496;28;20392;-78
2022/05/22 12:41:53;;;;;;;3.25;1.30;;;;;;;;;;5033619;28;20026;-79
2022/05/22 12:44:19;;;;;;;1.52;1.23;;;;;;;;;;5033534;28;20041;-77
2022/05/22 12:46:46;;;;;;;2.78;1.40;;;;;;;;;;5033628;28;20050;-79
2022/05/22 12:49:31;;;;;;;3.20;1.25;;;;;;;;;;5032360;28;20036;-80
2022/05/22 12:52:26;;;;;;;4.75;2.08;;;;;;;;;;5033427;28;20025;-76
2022/05/22 12:54:59;;;;;;;4.75;1.50;;;;;;;;;;5016954;28;20029;-79
2022/05/22 12:57:26;;;;;;;4.00;1.42;;;;;;;;;;5033197;28;20064;-80
2022/05/22 12:59:53;;;;;;;4.40;1.85;;;;;;;;;;5033490;28;20073;-77
2022/05/22 13:02:27;;;;;;;2.80;1.75;;;;;;;;;;5033109;28;20025;-80
2022/05/22 13:04:57;;;;;;;5.93;1.90;;;;;;;;;;5033442;28;20104;-78
2022/05/22 13:07:29;;;;;;;2.53;1.73;;;;;;;;;;5032653;28;20029;-79
2022/05/22 13:09:56;;;;;;;6.75;1.85;;;;;;;;;;5033232;28;20484;-76
2022/05/22 13:12:27;;;;;;;3.33;2.00;;;;;;;;;;5032872;28;20033;-76
2022/05/22 13:14:55;;;;;;;6.85;3.53;;;;;;;;;;5033405;28;20503;-77
2022/05/22 13:17:41;;;;;;;5.30;3.60;;;;;;;;;;5032937;28;20029;-77
2022/05/22 13:20:25;;;;;;;3.25;2.60;;;;;;;;;;5032883;28;20104;-81
2022/05/22 13:23:02;;;;;;;3.03;2.67;;;;;;;;;;5032564;28;20479;-80
2022/05/22 13:25:30;;;;;;;4.35;2.60;;;;;;;;;;5032820;28;20021;-79
2022/05/22 13:27:57;;;;;;;2.90;2.45;;;;;;;;;;5032985;28;20100;-78
2022/05/22 13:30:28;;;;;;;2.92;2.47;;;;;;;;;;5032183;28;20025;-78
2022/05/22 13:33:05;;;;;;;2.90;2.15;;;;;;;;;;5032768;28;20056;-79
2022/05/22 13:35:36;;;;;;;5.20;2.03;;;;;;;;;;5032525;28;20392;-77
2022/05/22 13:38:04;;;;;;;3.58;3.20;;;;;;;;;;5032831;28;20037;-77
2022/05/22 13:40:51;;;;;;;2.40;2.05;;;;;;;;;;5033974;28;20028;-78
2022/05/22 13:43:17;;;;;;;5.07;2.38;;;;;;;;;;5032764;28;20080;-79
2022/05/22 13:45:43;;;;;;;4.30;3.00;;;;;;;;;;5032315;28;20022;-78
2022/05/22 13:48:33;;;;;;;3.33;2.33;;;;;;;;;;5032450;28;20022;-78
2022/05/22 13:53:47;;;;;;;3.05;2.13;;;;;;;;;;5032195;28;20036;-78
2022/05/22 13:56:31;;;;;;;2.55;1.92;;;;;;;;;;5032466;28;20449;-78
2022/05/22 13:58:57;;;;;;;2.55;1.73;;;;;;;;;;5032536;28;20048;-77
2022/05/22 14:01:24;;;;;;;3.70;1.95;;;;;;;;;;5032201;28;20480;-78
2022/05/22 14:03:52;;;;;;;2.45;2.20;;;;;;;;;;5032617;28;20033;-78
2022/05/22 14:06:22;;;;;;;2.60;1.90;;;;;;;;;;5032271;28;20056;-83
2022/05/22 14:08:51;;;;;;;2.15;1.70;;;;;;;;;;5032359;28;20076;-79
2022/05/22 14:11:32;;;;;;;2.90;1.90;;;;;;;;;;5031201;28;20476;-78
2022/05/22 14:13:59;;;;;;;4.25;1.70;;;;;;;;;;5031952;28;20100;-76
2022/05/22 14:16:26;;;;;;;4.20;2.45;;;;;;;;;;5032160;28;20483;-80
2022/05/22 14:19:11;;;;;;;2.45;1.65;;;;;;;;;;5032003;28;20029;-78
2022/05/22 14:21:42;;;;;;;3.83;1.95;;;;;;;;;;5031845;28;20079;-77
2022/05/22 14:27:15;;;;;;;3.80;2.00;;;;;;;;;;5031739;28;20020;-77
2022/05/22 14:29:42;;;;;;;4.38;2.30;;;;;;;;;;5032045;28;20028;-79
2022/05/22 14:32:14;;;;;;;3.58;2.25;;;;;;;;;;5031787;28;20032;-78
2022/05/22 14:34:40;;;;;;;3.13;2.08;;;;;;;;;;5031965;28;20435;-78
2022/05/22 14:37:10;;;;;;;3.25;2.25;;;;;;;;;;5032716;28;20029;-79
2022/05/22 14:39:45;;;;;;;3.17;2.08;;;;;;;;;;5032141;28;20037;-77
2022/05/22 14:42:11;;;;;;;2.97;1.55;;;;;;;;;;5035816;28;20029;-79
2022/05/22 14:44:38;;;;;;;2.72;2.08;;;;;;;;;;5035747;28;20033;-78
2022/05/22 14:47:05;;;;;;;3.80;1.83;;;;;;;;;;5035781;28;20485;-79
2022/05/22 14:49:38;;;;;;;4.10;2.30;;;;;;;;;;5035862;28;20029;-77
2022/05/22 14:52:24;;;;;;;11.57;10.35;;;;;;;;;;5035494;28;20026;-78
2022/05/22 14:54:53;;;;;;;4.70;2.28;;;;;;;;;;5019060;28;20111;-79
2022/05/22 14:57:30;;;;;;;5.00;3.33;;;;;;;;;;5035887;28;20048;-79
2022/05/22 15:00:13;;;;;;;3.33;1.60;;;;;;;;;;5035756;28;20095;-79
2022/05/22 15:02:45;;;;;;;2.60;1.50;;;;;;;;;;5035549;28;20028;-79
2022/05/22 15:05:19;;;;;;;2.85;2.13;;;;;;;;;;5035510;28;20425;-80
2022/05/22 15:07:53;;;;;;;3.40;1.77;;;;;;;;;;5035566;28;20025;-80
2022/05/22 15:10:24;;;;;;;2.35;1.90;;;;;;;;;;5035778;28;20018;-84
2022/05/22 15:12:50;;;;;;;3.00;1.95;;;;;;;;;;5035208;28;20507;-79
2022/05/22 15:15:35;;;;;;;3.33;2.15;;;;;;;;;;5035221;28;20115;-80
2022/05/22 15:18:06;;;;;;;2.78;1.40;;;;;;;;;;5035259;28;20025;-82
2022/05/22 15:20:33;;;;;;;3.28;2.05;;;;;;;;;;5035393;28;20045;-80
2022/05/22 15:25:50;;;;;;;3.75;1.77;;;;;;;;;;5035413;28;20419;-81
2022/05/22 15:28:19;;;;;;;2.50;1.35;;;;;;;;;;5033801;28;20053;-82
2022/05/22 15:30:53;;;;;;;2.17;1.13;;;;;;;;;;5035079;28;20026;-84
2022/05/22 15:33:22;;;;;;;1.98;1.30;;;;;;;;;;5035017;28;20025;-78
2022/05/22 15:36:00;;;;;;;2.83;1.10;;;;;;;;;;5034991;28;20511;-83
2022/05/22 15:38:28;;;;;;;2.75;1.20;;;;;;;;;;5035089;28;20025;-80
2022/05/22 15:40:59;;;;;;;3.25;1.40;;;;;;;;;;5034946;28;20029;-79
2022/05/22 15:43:30;;;;;;;2.90;1.58;;;;;;;;;;5034758;28;20029;-80
2022/05/22 15:46:11;;;;;;;1.83;1.20;;;;;;;;;;5034525;28;20431;-79
2022/05/22 15:51:45;;;;;;;2.05;1.30;;;;;;;;;;5034411;28;20079;-82
2022/05/22 15:54:12;;;;;;;3.75;1.77;;;;;;;;;;5034686;28;20033;-82
2022/05/22 15:56:38;;;;;;;1.88;1.27;;;;;;;;;;5034528;28;20030;-78
2022/05/22 15:59:06;;;;;;;1.90;1.20;;;;;;;;;;5034592;28;20085;-82
2022/05/22 16:01:37;;;;;;;3.63;1.58;;;;;;;;;;5034464;28;20071;-84
2022/05/22 16:04:21;;;;;;;3.63;1.33;;;;;;;;;;5034734;28;20071;-85
2022/05/22 16:06:50;;;;;;;2.53;1.80;;;;;;;;;;5033177;28;20052;-84
2022/05/22 16:09:16;;;;;;;5.63;2.00;;;;;;;;;;5033406;28;20423;-80
2022/05/22 16:11:48;;;;;;;3.17;2.03;;;;;;;;;;5034600;28;20029;-84
2022/05/22 16:14:17;;;;;;;2.38;1.70;;;;;;;;;;5016789;28;20022;-84
2022/05/22 16:16:47;;;;;;;2.40;1.45;;;;;;;;;;5034368;28;20495;-83
2022/05/22 16:19:17;;;;;;;2.60;1.48;;;;;;;;;;5016839;28;20041;-81
2022/05/22 16:21:50;;;;;;;4.80;4.25;;;;;;;;;;5034104;28;20029;-82
2022/05/22 16:24:36;;;;;;;;;;;;;;;;;;;;;
2022/05/22 16:30:10;;;;;;;2.78;1.58;;;;;;;;;;5019959;28;20030;-80
2022/05/22 16:32:37;;;;;;;2.90;1.80;;;;;;;;;;5034194;28;20064;-82
2022/05/22 16:35:04;;;;;;;3.92;1.73;;;;;;;;;;5032368;28;20392;-81
2022/05/22 16:37:30;;;;;;;3.70;2.00;;;;;;;;;;5032723;28;20040;-80
2022/05/22 16:39:56;;;;;;;3.28;2.25;;;;;;;;;;5033528;28;20476;-80
2022/05/22 16:42:22;;;;;;;2.90;2.22;;;;;;;;;;5032395;28;20057;-80
2022/05/22 16:44:49;;;;;;;3.42;1.90;;;;;;;;;;5032544;28;20445;-80